Time,TemperatureF,DewpointF,PressureIn,WindDirection,WindDirectionDegrees,WindSpeedMPH,WindSpeedGustMPH,Humidity,HourlyPrecipIn,Conditions,Clouds,dailyrainin,SoftwareType,DateUTC
2013-01-29 00:05:00,43.5,41.3,30.23,South,172,6.0,6.0,92,0.00,,,0.00,Wunderground v.1.15,2013-01-29 08:05:00,
2013-01-29 00:10:00,43.5,41.3,30.23,SSW,194,6.0,6.0,92,0.00,,,0.00,Wunderground v.1.15,2013-01-29 08:10:00,
2013-01-29 00:15:00,43.6,41.4,30.23,South,171,6.0,6.0,92,0.00,,,0.00,Wunderground v.1.15,2013-01-29 08:15:00,
2013-01-29 00:25:00,43.4,41.2,30.24,South,182,4.0,6.0,92,0.00,,,0.00,Wunderground v.1.15,2013-01-29 08:25:00,
2013-01-29 00:30:00,43.2,41.0,30.23,SSW,195,4.0,4.0,92,0.00,,,0.00,Wunderground v.1.15,2013-01-29 08:30:00,
2013-01-29 00:40:00,43.1,41.2,30.23,South,178,4.0,4.0,93,0.00,,,0.00,Wunderground v.1.15,2013-01-29 08:40:00,
2013-01-29 00:45:00,43.0,41.1,30.23,South,183,4.0,4.0,93,0.00,,,0.00,Wunderground v.1.15,2013-01-29 08:45:00,
2013-01-29 00:50:00,43.0,41.1,30.24,South,178,3.0,5.0,93,0.00,,,0.00,Wunderground v.1.15,2013-01-29 08:50:00,
2013-01-29 01:00:00,42.9,41.0,30.24,South,180,3.0,3.0,93,0.00,,,0.00,Wunderground v.1.15,2013-01-29 09:00:00,
2013-01-29 01:05:00,42.9,41.0,30.23,South,182,3.0,3.0,93,0.00,,,0.00,Wunderground v.1.15,2013-01-29 09:05:00,
2013-01-29 01:15:00,43.0,41.1,30.23,South,173,3.0,3.0,93,0.00,,,0.00,Wunderground v.1.15,2013-01-29 09:15:00,
2013-01-29 01:25:00,43.0,41.1,30.23,South,176,3.0,4.0,93,0.00,,,0.00,Wunderground v.1.15,2013-01-29 09:25:00,
2013-01-29 01:30:00,43.1,41.2,30.23,South,181,4.0,4.0,93,0.00,,,0.00,Wunderground v.1.15,2013-01-29 09:30:00,
2013-01-29 01:40:00,43.2,41.3,30.23,South,178,4.0,4.0,93,0.00,,,0.00,Wunderground v.1.15,2013-01-29 09:40:00,
2013-01-29 01:50:00,43.6,41.7,30.23,South,177,5.0,5.0,93,0.00,,,0.00,Wunderground v.1.15,2013-01-29 09:50:00,
2013-01-29 02:00:00,44.0,41.8,30.24,South,173,5.0,5.0,92,0.00,,,0.00,Wunderground v.1.15,2013-01-29 10:00:00,
2013-01-29 02:10:00,44.2,42.0,30.23,South,187,6.0,6.0,92,0.00,,,0.00,Wunderground v.1.15,2013-01-29 10:10:00,
2013-01-29 02:15:00,44.2,42.0,30.23,South,186,6.0,6.0,92,0.00,,,0.00,Wunderground v.1.15,2013-01-29 10:15:00,
2013-01-29 02:25:00,44.3,41.8,30.23,South,185,6.0,8.0,91,0.00,,,0.00,Wunderground v.1.15,2013-01-29 10:25:00,
2013-01-29 02:30:00,44.4,41.9,30.23,SSE,163,5.0,5.0,91,0.00,,,0.00,Wunderground v.1.15,2013-01-29 10:30:00,
2013-01-29 02:40:00,44.3,41.8,30.24,South,183,5.0,5.0,91,0.00,,,0.00,Wunderground v.1.15,2013-01-29 10:40:00,
2013-01-29 02:45:00,44.3,41.8,30.24,South,186,4.0,5.0,91,0.00,,,0.00,Wunderground v.1.15,2013-01-29 10:45:00,
2013-01-29 02:55:00,44.3,41.8,30.25,South,186,3.0,4.0,91,0.00,,,0.00,Wunderground v.1.15,2013-01-29 10:55:00,
2013-01-29 03:00:00,44.3,41.8,30.25,South,180,3.0,8.0,91,0.00,,,0.00,Wunderground v.1.15,2013-01-29 11:00:00,
2013-01-29 03:10:00,44.5,42.0,30.25,SSW,212,5.0,5.0,91,0.00,,,0.00,Wunderground v.1.15,2013-01-29 11:10:00,
2013-01-29 03:15:00,44.5,42.0,30.25,SSW,195,5.0,5.0,91,0.00,,,0.00,Wunderground v.1.15,2013-01-29 11:15:00,
2013-01-29 03:25:00,44.6,42.1,30.25,SW,223,5.0,5.0,91,0.00,,,0.00,Wunderground v.1.15,2013-01-29 11:25:00,
2013-01-29 03:30:00,44.7,42.2,30.25,South,182,6.0,6.0,91,0.00,,,0.00,Wunderground v.1.15,2013-01-29 11:30:00,
2013-01-29 03:40:00,44.7,42.2,30.26,SSE,155,6.0,6.0,91,0.00,,,0.00,Wunderground v.1.15,2013-01-29 11:40:00,
2013-01-29 03:50:00,44.9,42.4,30.26,South,182,6.0,10.0,91,0.00,,,0.00,Wunderground v.1.15,2013-01-29 11:50:00,
2013-01-29 04:00:00,44.9,42.1,30.26,SSW,196,6.0,6.0,90,0.00,,,0.00,Wunderground v.1.15,2013-01-29 12:00:00,
2013-01-29 04:05:00,44.9,42.4,30.26,South,175,6.0,9.0,91,0.00,,,0.00,Wunderground v.1.15,2013-01-29 12:05:00,
2013-01-29 04:15:00,44.8,42.3,30.26,South,175,5.0,10.0,91,0.00,,,0.00,Wunderground v.1.15,2013-01-29 12:15:00,
2013-01-29 04:25:00,44.8,42.3,30.27,South,188,6.0,6.0,91,0.00,,,0.00,Wunderground v.1.15,2013-01-29 12:25:00,
2013-01-29 04:30:00,44.9,42.4,30.27,South,178,6.0,6.0,91,0.00,,,0.00,Wunderground v.1.15,2013-01-29 12:30:00,
2013-01-29 04:40:00,44.9,42.4,30.27,South,183,5.0,6.0,91,0.00,,,0.00,Wunderground v.1.15,2013-01-29 12:40:00,
2013-01-29 04:50:00,44.9,42.4,30.27,SSE,168,6.0,6.0,91,0.00,,,0.00,Wunderground v.1.15,2013-01-29 12:50:00,
2013-01-29 04:55:00,44.8,42.3,30.27,SSE,167,6.0,6.0,91,0.00,,,0.00,Wunderground v.1.15,2013-01-29 12:55:00,
2013-01-29 05:05:00,44.9,42.4,30.27,SSW,194,6.0,7.0,91,0.00,,,0.00,Wunderground v.1.15,2013-01-29 13:05:00,
2013-01-29 05:15:00,44.9,42.4,30.27,South,187,7.0,7.0,91,0.00,,,0.00,Wunderground v.1.15,2013-01-29 13:15:00,
2013-01-29 05:25:00,45.0,42.5,30.28,South,188,5.0,6.0,91,0.00,,,0.00,Wunderground v.1.15,2013-01-29 13:25:00,
2013-01-29 05:30:00,45.1,42.6,30.28,SSW,212,5.0,5.0,91,0.00,,,0.00,Wunderground v.1.15,2013-01-29 13:30:00,
2013-01-29 05:40:00,45.1,42.3,30.28,South,188,5.0,5.0,90,0.00,,,0.00,Wunderground v.1.15,2013-01-29 13:40:00,
2013-01-29 05:45:00,45.1,42.3,30.28,SSE,164,4.0,5.0,90,0.00,,,0.00,Wunderground v.1.15,2013-01-29 13:45:00,
2013-01-29 05:50:00,45.2,42.4,30.28,South,185,4.0,4.0,90,0.00,,,0.00,Wunderground v.1.15,2013-01-29 13:50:00,
2013-01-29 06:00:00,44.6,42.1,30.29,SSE,161,4.0,5.0,91,0.00,,,0.00,Wunderground v.1.15,2013-01-29 14:00:00,
2013-01-29 06:05:00,44.4,41.9,30.29,South,169,4.0,6.0,91,0.00,,,0.00,Wunderground v.1.15,2013-01-29 14:05:00,
2013-01-29 06:15:00,44.3,42.1,30.29,South,172,4.0,4.0,92,0.00,,,0.00,Wunderground v.1.15,2013-01-29 14:15:00,
2013-01-29 06:25:00,44.4,42.2,30.30,South,175,4.0,8.0,92,0.00,,,0.00,Wunderground v.1.15,2013-01-29 14:25:00,
2013-01-29 06:30:00,44.4,42.2,30.30,South,185,4.0,4.0,92,0.00,,,0.00,Wunderground v.1.15,2013-01-29 14:30:00,
2013-01-29 06:40:00,44.4,42.2,30.31,South,178,4.0,4.0,92,0.00,,,0.00,Wunderground v.1.15,2013-01-29 14:40:00,
2013-01-29 06:45:00,44.4,42.2,30.31,South,171,4.0,6.0,92,0.00,,,0.00,Wunderground v.1.15,2013-01-29 14:45:00,
2013-01-29 06:50:00,44.5,42.3,30.32,South,171,4.0,6.0,92,0.00,,,0.00,Wunderground v.1.15,2013-01-29 14:50:00,
2013-01-29 07:00:00,44.6,42.4,30.32,South,186,4.0,4.0,92,0.00,,,0.00,Wunderground v.1.15,2013-01-29 15:00:00,
2013-01-29 07:05:00,44.6,42.4,30.33,South,172,3.0,4.0,92,0.00,,,0.00,Wunderground v.1.15,2013-01-29 15:05:00,
2013-01-29 07:15:00,44.4,42.2,30.33,South,182,3.0,5.0,92,0.00,,,0.00,Wunderground v.1.15,2013-01-29 15:15:00,
2013-01-29 07:25:00,44.2,42.3,30.33,South,181,4.0,4.0,93,0.00,,,0.00,Wunderground v.1.15,2013-01-29 15:25:00,
2013-01-29 07:30:00,44.1,42.5,30.33,SSE,168,3.0,5.0,94,0.00,,,0.00,Wunderground v.1.15,2013-01-29 15:30:00,
2013-01-29 07:40:00,44.0,42.4,30.33,South,179,3.0,3.0,94,0.00,,,0.00,Wunderground v.1.15,2013-01-29 15:40:00,
2013-01-29 07:50:00,43.9,42.3,30.34,SE,140,2.0,2.0,94,0.00,,,0.00,Wunderground v.1.15,2013-01-29 15:50:00,
2013-01-29 08:00:00,43.9,42.6,30.34,SSE,156,2.0,3.0,95,0.00,,,0.00,Wunderground v.1.15,2013-01-29 16:00:00,
2013-01-29 08:10:00,43.9,42.6,30.34,South,174,3.0,3.0,95,0.00,,,0.00,Wunderground v.1.15,2013-01-29 16:10:00,
2013-01-29 08:15:00,43.8,42.5,30.34,SE,141,2.0,4.0,95,0.00,,,0.00,Wunderground v.1.15,2013-01-29 16:15:00,
2013-01-29 08:25:00,43.8,42.5,30.36,South,174,3.0,3.0,95,0.00,,,0.01,Wunderground v.1.15,2013-01-29 16:25:00,
2013-01-29 08:35:00,43.8,42.5,30.36,SSW,194,2.0,4.0,95,0.00,,,0.01,Wunderground v.1.15,2013-01-29 16:35:00,
2013-01-29 08:40:00,43.9,42.6,30.36,SSE,156,3.0,3.0,95,0.00,,,0.02,Wunderground v.1.15,2013-01-29 16:40:00,
2013-01-29 08:45:00,43.9,42.6,30.36,South,186,3.0,3.0,95,0.00,,,0.02,Wunderground v.1.15,2013-01-29 16:45:00,
2013-01-29 08:50:00,43.9,42.6,30.36,South,183,2.0,2.0,95,0.05,,,0.03,Wunderground v.1.15,2013-01-29 16:50:00,
2013-01-29 09:00:00,43.8,42.5,30.36,South,182,2.0,2.0,95,0.05,,,0.03,Wunderground v.1.15,2013-01-29 17:00:00,
2013-01-29 09:10:00,43.9,42.6,30.37,SSE,153,2.0,2.0,95,0.05,,,0.04,Wunderground v.1.15,2013-01-29 17:10:00,
2013-01-29 09:15:00,43.9,42.6,30.38,SSE,168,2.0,2.0,95,0.04,,,0.04,Wunderground v.1.15,2013-01-29 17:15:00,
2013-01-29 09:25:00,43.9,42.6,30.38,SSE,163,2.0,2.0,95,0.00,,,0.04,Wunderground v.1.15,2013-01-29 17:25:00,
2013-01-29 09:30:00,44.0,42.7,30.38,South,172,2.0,3.0,95,0.00,,,0.04,Wunderground v.1.15,2013-01-29 17:30:00,
2013-01-29 09:35:00,44.0,42.7,30.38,South,190,3.0,3.0,95,0.00,,,0.04,Wunderground v.1.15,2013-01-29 17:35:00,
2013-01-29 09:40:00,44.0,42.7,30.39,South,169,3.0,3.0,95,0.00,,,0.04,Wunderground v.1.15,2013-01-29 17:40:00,
2013-01-29 09:45:00,44.0,42.7,30.39,South,188,3.0,3.0,95,0.00,,,0.04,Wunderground v.1.15,2013-01-29 17:45:00,
2013-01-29 09:50:00,44.1,43.0,30.39,South,186,3.0,3.0,96,0.00,,,0.04,Wunderground v.1.15,2013-01-29 17:50:00,
2013-01-29 10:00:00,44.2,42.9,30.39,SSW,193,4.0,4.0,95,0.00,,,0.04,Wunderground v.1.15,2013-01-29 18:00:00,
2013-01-29 10:05:00,44.2,42.9,30.40,SSE,168,3.0,4.0,95,0.00,,,0.04,Wunderground v.1.15,2013-01-29 18:05:00,
2013-01-29 10:10:00,44.2,42.9,30.40,South,188,4.0,4.0,95,0.00,,,0.04,Wunderground v.1.15,2013-01-29 18:10:00,
2013-01-29 10:15:00,44.2,43.1,30.40,South,173,4.0,4.0,96,0.00,,,0.04,Wunderground v.1.15,2013-01-29 18:15:00,
2013-01-29 10:25:00,44.2,43.1,30.40,South,175,4.0,4.0,96,0.00,,,0.04,Wunderground v.1.15,2013-01-29 18:25:00,
2013-01-29 10:30:00,44.2,43.1,30.40,SSE,162,4.0,4.0,96,0.00,,,0.04,Wunderground v.1.15,2013-01-29 18:30:00,
2013-01-29 10:40:00,44.3,43.2,30.41,South,188,3.0,4.0,96,0.00,,,0.05,Wunderground v.1.15,2013-01-29 18:40:00,
2013-01-29 10:45:00,44.4,43.3,30.41,South,180,4.0,6.0,96,0.00,,,0.05,Wunderground v.1.15,2013-01-29 18:45:00,
2013-01-29 10:50:00,44.5,43.4,30.41,SSW,193,4.0,5.0,96,0.00,,,0.05,Wunderground v.1.15,2013-01-29 18:50:00,
2013-01-29 11:00:00,44.6,43.3,30.42,South,179,3.0,4.0,95,0.00,,,0.05,Wunderground v.1.15,2013-01-29 19:00:00,
2013-01-29 11:05:00,44.7,43.4,30.42,SSE,166,4.0,4.0,95,0.00,,,0.05,Wunderground v.1.15,2013-01-29 19:05:00,
2013-01-29 11:10:00,44.8,43.5,30.42,SSE,154,4.0,4.0,95,0.00,,,0.05,Wunderground v.1.15,2013-01-29 19:10:00,
2013-01-29 11:15:00,44.8,43.5,30.42,SSE,163,4.0,6.0,95,0.00,,,0.05,Wunderground v.1.15,2013-01-29 19:15:00,
2013-01-29 11:25:00,44.9,43.6,30.42,South,186,4.0,5.0,95,0.00,,,0.05,Wunderground v.1.15,2013-01-29 19:25:00,
2013-01-29 11:30:00,45.1,43.8,30.42,SSE,165,4.0,4.0,95,0.00,,,0.05,Wunderground v.1.15,2013-01-29 19:30:00,
2013-01-29 11:40:00,45.2,43.9,30.42,SSE,160,4.0,4.0,95,0.00,,,0.05,Wunderground v.1.15,2013-01-29 19:40:00,
2013-01-29 11:45:00,45.2,43.9,30.43,South,180,3.0,6.0,95,0.00,,,0.05,Wunderground v.1.15,2013-01-29 19:45:00,
2013-01-29 11:50:00,45.3,44.0,30.43,South,178,4.0,4.0,95,0.00,,,0.05,Wunderground v.1.15,2013-01-29 19:50:00,
2013-01-29 12:00:00,45.4,44.1,30.43,SSW,201,3.0,4.0,95,0.00,,,0.05,Wunderground v.1.15,2013-01-29 20:00:00,
2013-01-29 12:05:00,45.5,44.2,30.43,South,190,4.0,4.0,95,0.00,,,0.05,Wunderground v.1.15,2013-01-29 20:05:00,
2013-01-29 12:15:00,45.6,44.3,30.43,SSE,157,4.0,5.0,95,0.00,,,0.05,Wunderground v.1.15,2013-01-29 20:15:00,
2013-01-29 12:20:00,45.6,44.0,30.43,SSW,202,5.0,5.0,94,0.00,,,0.05,Wunderground v.1.15,2013-01-29 20:20:00,
2013-01-29 12:30:00,45.8,44.2,30.43,South,180,4.0,4.0,94,0.00,,,0.05,Wunderground v.1.15,2013-01-29 20:30:00,
2013-01-29 12:40:00,46.0,44.4,30.43,South,177,4.0,4.0,94,0.00,,,0.05,Wunderground v.1.15,2013-01-29 20:40:00,
2013-01-29 12:50:00,46.1,44.2,30.43,SSE,163,5.0,5.0,93,0.00,,,0.05,Wunderground v.1.15,2013-01-29 20:50:00,
2013-01-29 13:00:00,46.3,44.4,30.43,South,173,5.0,5.0,93,0.00,,,0.05,Wunderground v.1.15,2013-01-29 21:00:00,
2013-01-29 13:10:00,46.4,44.5,30.43,South,171,4.0,4.0,93,0.00,,,0.05,Wunderground v.1.15,2013-01-29 21:10:00,
2013-01-29 13:15:00,46.4,44.5,30.43,South,180,4.0,6.0,93,0.00,,,0.05,Wunderground v.1.15,2013-01-29 21:15:00,
2013-01-29 13:25:00,46.6,44.7,30.43,South,188,4.0,6.0,93,0.00,,,0.05,Wunderground v.1.15,2013-01-29 21:25:00,
2013-01-29 13:35:00,46.4,44.5,30.43,South,184,5.0,5.0,93,0.00,,,0.05,Wunderground v.1.15,2013-01-29 21:35:00,
2013-01-29 13:40:00,46.4,44.5,30.43,SE,146,5.0,5.0,93,0.00,,,0.05,Wunderground v.1.15,2013-01-29 21:40:00,
2013-01-29 13:45:00,46.4,44.2,30.43,SSW,199,4.0,9.0,92,0.00,,,0.05,Wunderground v.1.15,2013-01-29 21:45:00,
2013-01-29 13:50:00,46.4,44.5,30.44,South,173,5.0,5.0,93,0.00,,,0.05,Wunderground v.1.15,2013-01-29 21:50:00,
2013-01-29 14:00:00,46.3,44.4,30.44,SSE,167,4.0,6.0,93,0.00,,,0.05,Wunderground v.1.15,2013-01-29 22:00:00,
2013-01-29 14:05:00,46.3,44.4,30.44,SE,142,4.0,6.0,93,0.00,,,0.05,Wunderground v.1.15,2013-01-29 22:05:00,
2013-01-29 14:10:00,46.3,44.4,30.44,South,184,4.0,7.0,93,0.00,,,0.05,Wunderground v.1.15,2013-01-29 22:10:00,
2013-01-29 14:15:00,46.3,44.4,30.44,South,171,4.0,7.0,93,0.00,,,0.05,Wunderground v.1.15,2013-01-29 22:15:00,
2013-01-29 14:25:00,46.2,44.3,30.44,SSW,205,4.0,10.0,93,0.00,,,0.05,Wunderground v.1.15,2013-01-29 22:25:00,
2013-01-29 14:30:00,46.2,44.3,30.44,South,180,4.0,4.0,93,0.00,,,0.05,Wunderground v.1.15,2013-01-29 22:30:00,
2013-01-29 14:40:00,46.3,44.4,30.44,South,184,3.0,3.0,93,0.00,,,0.05,Wunderground v.1.15,2013-01-29 22:40:00,
2013-01-29 14:50:00,46.3,44.7,30.44,SE,141,2.0,3.0,94,0.00,,,0.05,Wunderground v.1.15,2013-01-29 22:50:00,
2013-01-29 14:55:00,46.2,44.6,30.44,South,182,2.0,3.0,94,0.00,,,0.05,Wunderground v.1.15,2013-01-29 22:55:00,
2013-01-29 15:00:00,46.2,44.6,30.45,SSE,155,2.0,3.0,94,0.00,,,0.05,Wunderground v.1.15,2013-01-29 23:00:00,
2013-01-29 15:05:00,46.1,44.5,30.44,South,183,3.0,5.0,94,0.00,,,0.05,Wunderground v.1.15,2013-01-29 23:05:00,
2013-01-29 15:15:00,46.1,44.5,30.44,South,186,3.0,4.0,94,0.00,,,0.05,Wunderground v.1.15,2013-01-29 23:15:00,
2013-01-29 15:25:00,46.1,44.5,30.45,South,184,3.0,4.0,94,0.00,,,0.05,Wunderground v.1.15,2013-01-29 23:25:00,
2013-01-29 15:30:00,46.0,44.4,30.45,South,184,3.0,4.0,94,0.00,,,0.05,Wunderground v.1.15,2013-01-29 23:30:00,
2013-01-29 15:35:00,46.0,44.4,30.46,South,174,3.0,4.0,94,0.00,,,0.05,Wunderground v.1.15,2013-01-29 23:35:00,
2013-01-29 15:45:00,46.1,44.5,30.46,SSW,198,3.0,3.0,94,0.00,,,0.05,Wunderground v.1.15,2013-01-29 23:45:00,
2013-01-29 15:50:00,46.0,44.6,30.46,SSW,198,2.0,3.0,95,0.00,,,0.05,Wunderground v.1.15,2013-01-29 23:50:00,
2013-01-29 16:00:00,45.9,44.5,30.46,SSE,156,3.0,3.0,95,0.00,,,0.05,Wunderground v.1.15,2013-01-30 00:00:00,
2013-01-29 16:05:00,45.9,44.5,30.46,South,174,2.0,3.0,95,0.00,,,0.05,Wunderground v.1.15,2013-01-30 00:05:00,
2013-01-29 16:10:00,45.8,44.4,30.46,SSW,193,2.0,4.0,95,0.00,,,0.05,Wunderground v.1.15,2013-01-30 00:10:00,
2013-01-29 16:15:00,45.7,44.4,30.46,South,188,2.0,4.0,95,0.00,,,0.05,Wunderground v.1.15,2013-01-30 00:15:00,
2013-01-29 16:20:00,45.7,44.4,30.46,South,188,3.0,4.0,95,0.00,,,0.05,Wunderground v.1.15,2013-01-30 00:20:00,
2013-01-29 16:30:00,45.6,44.5,30.47,SSW,192,2.0,2.0,96,0.00,,,0.06,Wunderground v.1.15,2013-01-30 00:30:00,
2013-01-29 16:40:00,45.7,44.6,30.47,South,188,2.0,2.0,96,0.00,,,0.06,Wunderground v.1.15,2013-01-30 00:40:00,
2013-01-29 16:45:00,45.7,44.6,30.47,WSW,240,1.0,2.0,96,0.00,,,0.06,Wunderground v.1.15,2013-01-30 00:45:00,
2013-01-29 16:55:00,45.5,44.4,30.46,SSW,196,2.0,3.0,96,0.13,,,0.08,Wunderground v.1.15,2013-01-30 00:55:00,
2013-01-29 17:05:00,45.4,44.3,30.47,South,183,2.0,3.0,96,0.08,,,0.09,Wunderground v.1.15,2013-01-30 01:05:00,
2013-01-29 17:10:00,45.4,44.3,30.47,South,188,3.0,3.0,96,0.05,,,0.09,Wunderground v.1.15,2013-01-30 01:10:00,
2013-01-29 17:15:00,45.4,44.3,30.47,SW,223,3.0,3.0,96,0.00,,,0.09,Wunderground v.1.15,2013-01-30 01:15:00,
2013-01-29 17:25:00,45.2,44.1,30.47,South,178,3.0,6.0,96,0.00,,,0.09,Wunderground v.1.15,2013-01-30 01:25:00,
2013-01-29 17:30:00,45.1,44.0,30.48,South,179,3.0,3.0,96,0.00,,,0.09,Wunderground v.1.15,2013-01-30 01:30:00,
2013-01-29 17:40:00,45.0,43.9,30.48,SSE,153,3.0,3.0,96,0.00,,,0.09,Wunderground v.1.15,2013-01-30 01:40:00,
2013-01-29 17:45:00,44.9,43.8,30.48,South,185,3.0,3.0,96,0.00,,,0.09,Wunderground v.1.15,2013-01-30 01:45:00,
2013-01-29 17:50:00,44.9,43.8,30.48,South,171,3.0,3.0,96,0.00,,,0.09,Wunderground v.1.15,2013-01-30 01:50:00,
2013-01-29 17:55:00,44.9,43.8,30.48,South,171,3.0,3.0,96,0.00,,,0.09,Wunderground v.1.15,2013-01-30 01:55:00,
2013-01-29 18:05:00,45.0,43.9,30.47,South,171,2.0,4.0,96,0.00,,,0.09,Wunderground v.1.15,2013-01-30 02:05:00,
2013-01-29 18:10:00,44.9,43.8,30.47,South,170,3.0,4.0,96,0.00,,,0.09,Wunderground v.1.15,2013-01-30 02:10:00,
2013-01-29 18:15:00,44.9,43.8,30.48,South,182,3.0,4.0,96,0.00,,,0.09,Wunderground v.1.15,2013-01-30 02:15:00,
2013-01-29 18:25:00,45.0,43.7,30.48,South,171,4.0,4.0,95,0.00,,,0.09,Wunderground v.1.15,2013-01-30 02:25:00,
2013-01-29 18:35:00,45.0,43.7,30.48,SSW,209,3.0,3.0,95,0.00,,,0.09,Wunderground v.1.15,2013-01-30 02:35:00,
2013-01-29 18:45:00,45.0,43.7,30.48,South,184,3.0,3.0,95,0.00,,,0.09,Wunderground v.1.15,2013-01-30 02:45:00,
2013-01-29 18:50:00,44.9,43.8,30.48,South,184,2.0,2.0,96,0.00,,,0.09,Wunderground v.1.15,2013-01-30 02:50:00,
2013-01-29 18:55:00,44.9,43.8,30.48,South,186,1.0,2.0,96,0.00,,,0.09,Wunderground v.1.15,2013-01-30 02:55:00,
2013-01-29 19:05:00,44.8,43.7,30.49,South,183,2.0,4.0,96,0.00,,,0.09,Wunderground v.1.15,2013-01-30 03:05:00,
2013-01-29 19:10:00,44.8,43.7,30.49,South,184,3.0,5.0,96,0.00,,,0.09,Wunderground v.1.15,2013-01-30 03:10:00,
2013-01-29 19:15:00,44.8,43.7,30.49,South,190,2.0,5.0,96,0.00,,,0.09,Wunderground v.1.15,2013-01-30 03:15:00,
2013-01-29 19:25:00,44.8,43.7,30.49,South,190,2.0,2.0,96,0.00,,,0.09,Wunderground v.1.15,2013-01-30 03:25:00,
2013-01-29 19:30:00,44.7,43.6,30.49,South,176,2.0,2.0,96,0.00,,,0.09,Wunderground v.1.15,2013-01-30 03:30:00,
2013-01-29 19:40:00,44.6,43.3,30.49,South,185,2.0,3.0,95,0.00,,,0.09,Wunderground v.1.15,2013-01-30 03:40:00,
2013-01-29 19:50:00,44.6,43.0,30.49,South,180,1.0,2.0,94,0.00,,,0.09,Wunderground v.1.15,2013-01-30 03:50:00,
2013-01-29 19:55:00,44.6,43.0,30.49,South,175,2.0,2.0,94,0.00,,,0.09,Wunderground v.1.15,2013-01-30 03:55:00,
2013-01-29 20:00:00,44.5,42.9,30.49,South,184,3.0,5.0,94,0.00,,,0.09,Wunderground v.1.15,2013-01-30 04:00:00,
2013-01-29 20:10:00,44.4,42.5,30.49,South,186,3.0,3.0,93,0.00,,,0.09,Wunderground v.1.15,2013-01-30 04:10:00,
2013-01-29 20:15:00,44.3,42.4,30.49,South,185,2.0,3.0,93,0.00,,,0.09,Wunderground v.1.15,2013-01-30 04:15:00,
2013-01-29 20:25:00,44.1,42.5,30.49,South,185,1.0,2.0,94,0.00,,,0.09,Wunderground v.1.15,2013-01-30 04:25:00,
2013-01-29 20:30:00,43.9,42.3,30.49,South,185,0.0,0.0,94,0.00,,,0.09,Wunderground v.1.15,2013-01-30 04:30:00,
2013-01-29 20:40:00,43.7,42.1,30.49,South,184,1.0,1.0,94,0.00,,,0.09,Wunderground v.1.15,2013-01-30 04:40:00,
2013-01-29 20:50:00,43.4,41.8,30.49,South,184,1.0,1.0,94,0.00,,,0.09,Wunderground v.1.15,2013-01-30 04:50:00,
2013-01-29 21:00:00,43.4,41.8,30.48,South,182,2.0,2.0,94,0.00,,,0.09,Wunderground v.1.15,2013-01-30 05:00:00,
2013-01-29 21:05:00,43.3,41.7,30.48,South,188,2.0,2.0,94,0.00,,,0.09,Wunderground v.1.15,2013-01-30 05:05:00,
2013-01-29 21:10:00,43.2,41.6,30.48,South,175,2.0,5.0,94,0.00,,,0.09,Wunderground v.1.15,2013-01-30 05:10:00,
2013-01-29 21:15:00,43.2,41.3,30.49,South,177,3.0,5.0,93,0.00,,,0.09,Wunderground v.1.15,2013-01-30 05:15:00,
2013-01-29 21:20:00,43.3,41.4,30.48,South,182,4.0,4.0,93,0.00,,,0.09,Wunderground v.1.15,2013-01-30 05:20:00,
2013-01-29 21:30:00,43.2,41.3,30.48,South,188,2.0,2.0,93,0.00,,,0.09,Wunderground v.1.15,2013-01-30 05:30:00,
2013-01-29 21:40:00,42.9,41.0,30.48,South,186,0.0,0.0,93,0.00,,,0.09,Wunderground v.1.15,2013-01-30 05:40:00,
2013-01-29 21:45:00,42.8,40.9,30.48,South,186,0.0,0.0,93,0.00,,,0.09,Wunderground v.1.15,2013-01-30 05:45:00,
2013-01-29 21:55:00,42.5,40.6,30.48,South,186,0.0,0.0,93,0.00,,,0.09,Wunderground v.1.15,2013-01-30 05:55:00,
2013-01-29 22:05:00,42.4,40.8,30.48,South,183,1.0,5.0,94,0.00,,,0.09,Wunderground v.1.15,2013-01-30 06:05:00,
2013-01-29 22:10:00,42.5,40.9,30.47,South,183,2.0,2.0,94,0.00,,,0.09,Wunderground v.1.15,2013-01-30 06:10:00,
2013-01-29 22:15:00,42.6,41.0,30.47,South,178,2.0,5.0,94,0.00,,,0.09,Wunderground v.1.15,2013-01-30 06:15:00,
2013-01-29 22:25:00,43.0,41.4,30.47,South,174,3.0,4.0,94,0.00,,,0.09,Wunderground v.1.15,2013-01-30 06:25:00,
2013-01-29 22:30:00,43.2,41.3,30.47,SSW,202,4.0,7.0,93,0.00,,,0.09,Wunderground v.1.15,2013-01-30 06:30:00,
2013-01-29 22:40:00,43.3,41.4,30.47,South,182,4.0,5.0,93,0.00,,,0.09,Wunderground v.1.15,2013-01-30 06:40:00,
2013-01-29 22:50:00,43.3,41.4,30.47,South,171,4.0,4.0,93,0.00,,,0.09,Wunderground v.1.15,2013-01-30 06:50:00,
2013-01-29 22:55:00,43.3,41.1,30.47,South,173,4.0,4.0,92,0.00,,,0.09,Wunderground v.1.15,2013-01-30 06:55:00,
2013-01-29 23:00:00,43.3,41.1,30.47,South,191,3.0,3.0,92,0.00,,,0.09,Wunderground v.1.15,2013-01-30 07:00:00,
2013-01-29 23:10:00,43.3,41.1,30.47,SSE,167,3.0,3.0,92,0.00,,,0.09,Wunderground v.1.15,2013-01-30 07:10:00,
2013-01-29 23:15:00,43.3,41.1,30.47,South,172,4.0,4.0,92,0.00,,,0.09,Wunderground v.1.15,2013-01-30 07:15:00,
2013-01-29 23:25:00,43.4,41.2,30.47,South,177,3.0,3.0,92,0.00,,,0.09,Wunderground v.1.15,2013-01-30 07:25:00,
2013-01-29 23:35:00,43.4,41.2,30.47,South,185,4.0,9.0,92,0.00,,,0.09,Wunderground v.1.15,2013-01-30 07:35:00,
2013-01-29 23:40:00,43.4,41.2,30.47,SSE,167,3.0,3.0,92,0.00,,,0.09,Wunderground v.1.15,2013-01-30 07:40:00,
2013-01-29 23:50:00,43.5,41.0,30.47,SSE,163,5.0,5.0,91,0.00,,,0.09,Wunderground v.1.15,2013-01-30 07:50:00,
2013-01-29 23:55:00,43.6,41.1,30.47,South,171,5.0,5.0,91,0.00,,,0.09,Wunderground v.1.15,2013-01-30 07:55:00,